createdAt,value
2019-04-07T00:02:13.069Z,10.20
2019-04-07T00:04:42.991Z,10.08
2019-04-07T00:07:13.842Z,10.14
2019-04-07T00:09:43.697Z,10.09
2019-04-07T00:12:13.777Z,10.14
2019-04-07T00:14:43.757Z,10.08
2019-04-07T00:17:13.821Z,10.02
2019-04-07T00:19:43.646Z,10.18
2019-04-07T00:22:13.417Z,10.20
2019-04-07T00:24:42.997Z,10.24
2019-04-07T00:27:12.997Z,10.19
2019-04-07T00:29:42.712Z,10.14
2019-04-07T00:32:12.300Z,10.31
2019-04-07T00:34:42.372Z,10.20
2019-04-07T00:37:12.022Z,10.23
2019-04-07T00:39:41.611Z,10.30
2019-04-07T00:42:11.428Z,10.32
2019-04-07T00:44:41.578Z,10.27
2019-04-07T00:47:11.168Z,10.45
2019-04-07T00:49:41.246Z,10.44
2019-04-07T00:52:12.027Z,10.58
2019-04-07T00:54:42.393Z,10.56
2019-04-07T00:57:12.201Z,10.68
2019-04-07T00:59:41.839Z,10.56
2019-04-07T01:02:11.433Z,10.57
2019-04-07T01:04:41.032Z,10.46
2019-04-07T01:07:11.269Z,10.55
2019-04-07T01:09:41.001Z,10.66
2019-04-07T01:12:10.763Z,10.67
2019-04-07T01:14:40.343Z,10.68
2019-04-07T01:17:09.957Z,10.71
2019-04-07T01:19:39.800Z,10.68
2019-04-07T01:22:09.957Z,10.73
2019-04-07T01:24:39.619Z,10.76
2019-04-07T01:27:09.304Z,10.71
2019-04-07T01:29:38.874Z,10.74
2019-04-07T01:32:08.773Z,10.89
2019-04-07T01:34:38.584Z,10.78
2019-04-07T01:37:08.767Z,10.76
2019-04-07T01:39:38.408Z,10.83
2019-04-07T01:42:21.370Z,10.77
2019-04-07T01:45:08.904Z,10.67
2019-04-07T01:48:00.714Z,10.68
2019-04-07T01:50:45.293Z,10.66
2019-04-07T01:53:32.403Z,10.61
2019-04-07T01:56:23.726Z,10.63
2019-04-07T01:59:15.402Z,10.76
2019-04-07T02:01:52.685Z,10.79
2019-04-07T02:04:44.625Z,10.73
2019-04-07T02:07:27.268Z,10.60
2019-04-07T02:10:16.279Z,10.50
2019-04-07T02:13:14.128Z,10.41
2019-04-07T02:16:12.308Z,10.27
2019-04-07T02:18:57.381Z,10.19
2019-04-07T02:21:36.152Z,10.31
2019-04-07T02:24:24.627Z,10.23
2019-04-07T02:27:33.964Z,10.17
2019-04-07T02:30:25.416Z,10.16
2019-04-07T02:33:07.197Z,10.08
2019-04-07T02:35:54.365Z,10.58
2019-04-07T02:38:38.921Z,10.57
2019-04-07T02:41:46.629Z,10.64
2019-04-07T02:44:30.025Z,10.54
2019-04-07T02:47:13.691Z,10.50
2019-04-07T02:50:03.365Z,10.65
2019-04-07T02:52:52.868Z,10.75
2019-04-07T02:55:42.296Z,10.83
2019-04-07T02:58:27.170Z,10.95
2019-04-07T03:01:22.258Z,11.01
2019-04-07T03:04:29.211Z,11.10
2019-04-07T03:07:11.831Z,11.00
2019-04-07T03:09:50.338Z,11.03
2019-04-07T03:12:54.184Z,11.06
2019-04-07T03:15:38.871Z,11.08
2019-04-07T03:18:27.395Z,10.99
2019-04-07T03:21:08.386Z,11.06
2019-04-07T03:23:59.977Z,10.91
2019-04-07T03:26:44.501Z,11.21
2019-04-07T03:29:29.490Z,11.27
2019-04-07T03:32:18.251Z,11.04
2019-04-07T03:34:52.031Z,10.78
2019-04-07T03:37:43.025Z,10.77
2019-04-07T03:40:28.562Z,10.71
2019-04-07T03:43:03.069Z,10.88
2019-04-07T03:45:47.079Z,10.71
2019-04-07T03:48:31.676Z,10.72
2019-04-07T03:51:09.367Z,10.66
2019-04-07T03:54:10.249Z,10.74
2019-04-07T03:56:58.335Z,10.87
2019-04-07T03:59:53.284Z,10.68
2019-04-07T04:02:37.910Z,11.18
2019-04-07T04:05:29.689Z,10.77
2019-04-07T04:08:18.443Z,10.88
2019-04-07T04:11:00.153Z,10.69
2019-04-07T04:13:42.384Z,11.29
2019-04-07T04:16:32.010Z,11.33
2019-04-07T04:19:02.462Z,11.33
2019-04-07T04:21:32.865Z,11.49
2019-04-07T04:24:03.998Z,11.63
2019-04-07T04:26:34.346Z,11.61
2019-04-07T04:29:04.105Z,11.66
2019-04-07T04:31:33.885Z,11.65
2019-04-07T04:34:03.437Z,11.59
2019-04-07T04:36:33.509Z,11.74
2019-04-07T04:39:04.896Z,11.67
2019-04-07T04:41:34.834Z,11.77
2019-04-07T04:44:04.826Z,11.74
2019-04-07T04:46:34.546Z,11.54
2019-04-07T04:49:04.278Z,11.66
2019-04-07T04:51:36.941Z,11.52
2019-04-07T04:54:05.248Z,11.73
2019-04-07T04:56:34.884Z,11.94
2019-04-07T04:59:04.448Z,11.92
2019-04-07T05:01:34.479Z,12.12
2019-04-07T05:04:04.087Z,11.86
2019-04-07T05:06:33.651Z,12.64
2019-04-07T05:09:05.608Z,12.63
2019-04-07T05:11:35.864Z,12.38
2019-04-07T05:14:05.929Z,12.54
2019-04-07T05:16:35.658Z,12.54
2019-04-07T05:19:05.248Z,12.39
2019-04-07T05:21:35.003Z,12.71
2019-04-07T05:24:04.587Z,12.66
2019-04-07T05:26:34.529Z,12.96
2019-04-07T05:29:04.749Z,13.03
2019-04-07T05:31:34.765Z,13.26
2019-04-07T05:34:05.348Z,12.44
2019-04-07T05:36:34.929Z,12.85
2019-04-07T05:39:07.443Z,13.02
2019-04-07T05:41:37.234Z,13.30
2019-04-07T05:44:06.832Z,13.40
2019-04-07T05:46:40.186Z,13.36
2019-04-07T05:49:07.731Z,13.44
2019-04-07T05:51:37.389Z,13.32
2019-04-07T05:54:07.189Z,13.73
2019-04-07T05:56:37.023Z,13.59
2019-04-07T05:59:09.905Z,13.31
2019-04-07T06:01:38.018Z,13.34
2019-04-07T06:04:07.643Z,13.29
2019-04-07T06:06:39.876Z,13.33
2019-04-07T06:09:09.460Z,13.33
2019-04-07T06:11:39.089Z,12.84
2019-04-07T06:14:08.723Z,12.81
2019-04-07T06:16:38.764Z,13.26
2019-04-07T06:19:09.000Z,13.39
2019-04-07T06:21:38.674Z,13.10
2019-04-07T06:24:08.932Z,13.25
2019-04-07T06:26:40.956Z,12.62
2019-04-07T06:29:10.490Z,12.73
2019-04-07T06:31:40.344Z,13.17
2019-04-07T06:34:11.314Z,12.98
2019-04-07T06:36:41.290Z,13.09
2019-04-07T06:39:11.029Z,13.42
2019-04-07T06:41:40.711Z,13.40
2019-04-07T06:44:13.808Z,12.92
2019-04-07T06:47:04.586Z,12.89
2019-04-07T06:49:56.443Z,12.87
2019-04-07T06:52:38.741Z,13.24
2019-04-07T06:55:32.711Z,13.37
2019-04-07T06:58:08.366Z,12.94
2019-04-07T07:00:56.723Z,13.37
2019-04-07T07:03:51.399Z,13.42
2019-04-07T07:06:40.625Z,13.50
2019-04-07T07:09:41.694Z,13.84
2019-04-07T07:12:34.990Z,13.54
2019-04-07T07:15:26.785Z,13.32
2019-04-07T07:18:14.326Z,13.61
2019-04-07T07:20:53.905Z,14.07
2019-04-07T07:23:27.362Z,13.60
2019-04-07T07:26:00.978Z,13.79
2019-04-07T07:28:28.335Z,13.92
2019-04-07T07:30:58.842Z,13.72
2019-04-07T07:33:29.224Z,13.82
2019-04-07T07:35:59.309Z,13.85
2019-04-07T07:38:31.102Z,13.83
2019-04-07T07:41:02.119Z,13.68
2019-04-07T07:43:31.921Z,13.54
2019-04-07T07:46:01.967Z,13.35
2019-04-07T07:48:32.212Z,13.29
2019-04-07T07:51:02.427Z,14.00
2019-04-07T07:53:32.863Z,13.91
2019-04-07T07:56:03.204Z,13.72
2019-04-07T07:58:34.497Z,14.16
2019-04-07T08:01:04.659Z,14.36
2019-04-07T08:03:35.189Z,14.15
2019-04-07T08:06:08.128Z,14.34
2019-04-07T08:08:36.365Z,14.21
2019-04-07T08:11:06.748Z,14.13
2019-04-07T08:13:42.036Z,14.33
2019-04-07T08:16:07.775Z,14.29
2019-04-07T08:18:40.646Z,13.74
2019-04-07T08:21:10.401Z,14.23
2019-04-07T08:23:43.104Z,14.27
2019-04-07T08:26:11.719Z,13.88
2019-04-07T08:28:41.334Z,13.71
2019-04-07T08:31:11.067Z,13.74
2019-04-07T08:33:40.965Z,14.08
2019-04-07T08:36:12.986Z,13.88
2019-04-07T08:38:42.269Z,14.15
2019-04-07T08:41:14.287Z,14.51
2019-04-07T08:43:43.393Z,14.59
2019-04-07T08:46:13.696Z,14.37
2019-04-07T08:48:43.326Z,13.98
2019-04-07T08:51:13.633Z,14.49
2019-04-07T08:53:44.927Z,14.77
2019-04-07T08:56:15.439Z,14.52
2019-04-07T08:58:45.741Z,14.80
2019-04-07T09:01:19.326Z,14.14
2019-04-07T09:03:47.294Z,14.41
2019-04-07T09:06:17.348Z,14.80
2019-04-07T09:08:47.032Z,14.99
2019-04-07T09:11:20.954Z,14.67
2019-04-07T09:13:54.758Z,15.26
2019-04-07T09:16:40.563Z,15.08
2019-04-07T09:19:38.580Z,15.27
2019-04-07T09:22:25.878Z,15.05
2019-04-07T09:25:13.060Z,14.85
2019-04-07T09:27:51.018Z,14.79
2019-04-07T09:30:42.152Z,14.82
2019-04-07T09:33:33.962Z,14.80
2019-04-07T09:36:20.313Z,14.70
2019-04-07T09:39:12.404Z,14.51
2019-04-07T09:41:55.142Z,14.67
2019-04-07T09:44:43.740Z,14.23
2019-04-07T09:47:39.145Z,14.71
2019-04-07T09:50:28.797Z,14.67
2019-04-07T09:53:13.782Z,14.59
2019-04-07T09:56:22.721Z,15.06
2019-04-07T09:59:16.799Z,15.30
2019-04-07T10:02:00.275Z,14.73
2019-04-07T10:04:44.029Z,15.13
2019-04-07T10:07:29.497Z,15.41
2019-04-07T10:10:16.098Z,15.48
2019-04-07T10:13:03.409Z,15.07
2019-04-07T10:15:51.863Z,15.12
2019-04-07T10:18:46.498Z,14.89
2019-04-07T10:21:26.438Z,15.05
2019-04-07T10:24:15.280Z,15.53
2019-04-07T10:27:10.782Z,15.54
2019-04-07T10:29:51.396Z,15.28
2019-04-07T10:32:48.950Z,15.72
2019-04-07T10:35:25.918Z,15.82
2019-04-07T10:38:20.490Z,15.51
2019-04-07T10:40:56.675Z,15.44
2019-04-07T10:43:45.161Z,15.73
2019-04-07T10:46:42.760Z,15.66
2019-04-07T10:49:43.304Z,15.58
2019-04-07T10:52:31.407Z,15.69
2019-04-07T10:55:20.725Z,15.78
2019-04-07T10:57:58.530Z,15.68
2019-04-07T11:00:37.038Z,16.20
2019-04-07T11:03:23.260Z,15.66
2019-04-07T11:06:07.248Z,15.86
2019-04-07T11:08:45.543Z,16.03
2019-04-07T11:11:34.082Z,15.27
2019-04-07T11:14:21.757Z,14.98
2019-04-07T11:17:04.814Z,15.00
2019-04-07T11:19:46.291Z,15.56
2019-04-07T11:22:36.933Z,15.53
2019-04-07T11:25:29.532Z,15.87
2019-04-07T11:28:18.186Z,16.88
2019-04-07T11:31:00.536Z,16.87
2019-04-07T11:33:45.354Z,16.95
2019-04-07T11:36:29.835Z,16.21
2019-04-07T11:39:17.719Z,16.79
2019-04-07T11:42:09.176Z,16.18
2019-04-07T11:44:58.380Z,16.30
2019-04-07T11:47:46.047Z,16.05
2019-04-07T11:50:22.299Z,15.56
2019-04-07T11:53:05.085Z,15.32
2019-04-07T11:55:47.511Z,15.89
2019-04-07T11:58:51.470Z,15.24
2019-04-07T12:01:50.138Z,15.03
2019-04-07T12:04:54.135Z,15.01
2019-04-07T12:07:55.791Z,15.02
2019-04-07T12:10:37.780Z,15.31
2019-04-07T12:13:29.716Z,14.96
2019-04-07T12:16:27.735Z,14.86
2019-04-07T12:19:13.842Z,15.88
2019-04-07T12:22:03.215Z,15.75
2019-04-07T12:24:57.520Z,16.18
2019-04-07T12:28:01.221Z,15.31
2019-04-07T12:30:50.264Z,16.57
2019-04-07T12:33:48.590Z,16.56
2019-04-07T12:36:56.183Z,16.10
2019-04-07T12:39:47.302Z,15.65
2019-04-07T12:42:27.808Z,15.74
2019-04-07T12:45:05.751Z,15.74
2019-04-07T12:47:43.067Z,15.60
2019-04-07T12:50:32.738Z,15.31
2019-04-07T12:53:21.920Z,15.10
2019-04-07T12:56:09.702Z,15.04
2019-04-07T12:59:17.937Z,15.10
2019-04-07T13:02:09.651Z,15.34
2019-04-07T13:04:53.354Z,15.03
2019-04-07T13:07:48.427Z,14.98
2019-04-07T13:10:39.387Z,14.96
2019-04-07T13:13:43.867Z,15.02
2019-04-07T13:16:32.470Z,15.18
2019-04-07T13:19:27.481Z,15.17
2019-04-07T13:22:15.138Z,15.33
2019-04-07T13:25:23.173Z,15.41
2019-04-07T13:28:12.427Z,15.58
2019-04-07T13:31:10.149Z,15.83
2019-04-07T13:34:17.841Z,15.48
2019-04-07T13:37:09.192Z,15.70
2019-04-07T13:40:04.028Z,15.48
2019-04-07T13:42:42.051Z,15.30
2019-04-07T13:45:34.385Z,15.24
2019-04-07T13:48:35.547Z,15.55
2019-04-07T13:51:27.968Z,15.58
2019-04-07T13:54:34.809Z,15.88
2019-04-07T13:57:25.609Z,16.13
2019-04-07T14:00:14.270Z,16.02
2019-04-07T14:03:07.016Z,16.39
2019-04-07T14:05:59.000Z,15.90
2019-04-07T14:08:39.195Z,15.49
2019-04-07T14:11:30.743Z,15.48
2019-04-07T14:14:18.227Z,15.57
2019-04-07T14:17:06.267Z,15.38
2019-04-07T14:19:55.216Z,15.29
2019-04-07T14:22:40.009Z,15.29
2019-04-07T14:25:17.988Z,15.24
2019-04-07T14:28:09.980Z,15.41
2019-04-07T14:31:01.637Z,15.28
2019-04-07T14:33:53.485Z,15.25
2019-04-07T14:36:42.726Z,15.14
2019-04-07T14:39:20.551Z,15.11
2019-04-07T14:42:07.322Z,15.24
2019-04-07T14:44:56.656Z,15.25
2019-04-07T14:47:32.462Z,15.45
2019-04-07T14:50:25.108Z,15.48
2019-04-07T14:53:20.044Z,15.56
2019-04-07T14:56:09.985Z,15.36
2019-04-07T14:58:53.836Z,15.68
2019-04-07T15:02:00.543Z,15.63
2019-04-07T15:04:43.864Z,15.69
2019-04-07T15:07:38.602Z,16.38
2019-04-07T15:10:21.577Z,15.83
2019-04-07T15:12:55.700Z,16.22
2019-04-07T15:15:25.469Z,16.75
2019-04-07T15:17:55.188Z,16.72
2019-04-07T15:20:25.098Z,16.59
2019-04-07T15:22:58.368Z,16.06
2019-04-07T15:25:27.697Z,17.03
2019-04-07T15:27:58.904Z,16.79
2019-04-07T15:30:29.889Z,17.18
2019-04-07T15:33:01.622Z,17.05
2019-04-07T15:35:31.016Z,17.64
2019-04-07T15:38:01.275Z,17.54
2019-04-07T15:40:35.006Z,17.29
2019-04-07T15:43:04.758Z,17.00
2019-04-07T15:45:33.787Z,17.33
2019-04-07T15:48:03.475Z,16.73
2019-04-07T15:50:33.293Z,17.00
2019-04-07T15:53:02.998Z,16.95
2019-04-07T15:55:46.014Z,16.52
2019-04-07T15:58:04.292Z,17.17
2019-04-07T16:00:35.267Z,17.31
2019-04-07T16:03:05.481Z,16.74
2019-04-07T16:05:41.270Z,16.63
2019-04-07T16:08:06.705Z,16.88
2019-04-07T16:10:36.416Z,16.33
2019-04-07T16:13:06.699Z,16.08
2019-04-07T16:15:37.261Z,16.45
2019-04-07T16:18:08.264Z,15.80
2019-04-07T16:20:40.362Z,15.56
2019-04-07T16:23:10.432Z,15.31
2019-04-07T16:25:41.795Z,15.42
2019-04-07T16:28:14.642Z,15.98
2019-04-07T16:30:43.003Z,16.08
2019-04-07T16:33:12.697Z,15.62
2019-04-07T16:35:43.941Z,15.72
2019-04-07T16:38:14.137Z,15.95
2019-04-07T16:40:44.623Z,16.33
2019-04-07T16:43:16.739Z,16.49
2019-04-07T16:45:46.326Z,16.17
2019-04-07T16:48:16.922Z,15.73
2019-04-07T16:50:51.846Z,15.49
2019-04-07T16:53:18.401Z,15.35
2019-04-07T16:55:52.741Z,15.27
2019-04-07T16:58:19.847Z,15.27
2019-04-07T17:00:49.908Z,15.47
2019-04-07T17:03:20.487Z,15.63
2019-04-07T17:05:50.394Z,15.60
2019-04-07T17:08:22.961Z,15.49
2019-04-07T17:10:51.618Z,15.39
2019-04-07T17:13:31.420Z,15.34
2019-04-07T17:15:53.981Z,15.29
2019-04-07T17:18:41.437Z,15.45
2019-04-07T17:21:16.070Z,15.50
2019-04-07T17:23:46.265Z,15.56
2019-04-07T17:26:16.034Z,15.51
2019-04-07T17:28:48.087Z,15.42
2019-04-07T17:31:17.596Z,15.24
2019-04-07T17:33:47.484Z,15.06
2019-04-07T17:36:20.136Z,15.00
2019-04-07T17:39:09.621Z,15.09
2019-04-07T17:41:39.598Z,14.89
2019-04-07T17:44:35.081Z,14.80
2019-04-07T17:47:29.477Z,14.79
2019-04-07T17:50:20.013Z,14.72
2019-04-07T17:53:10.174Z,14.99
2019-04-07T17:56:03.991Z,14.96
2019-04-07T17:58:58.991Z,15.36
2019-04-07T18:01:55.440Z,15.36
2019-04-07T18:04:51.228Z,15.37
2019-04-07T18:07:38.195Z,15.39
2019-04-07T18:10:26.648Z,15.39
2019-04-07T18:13:43.781Z,15.42
2019-04-07T18:16:27.304Z,15.29
2019-04-07T18:19:15.258Z,15.04
2019-04-07T18:22:06.994Z,14.79
2019-04-07T18:24:43.843Z,14.78
2019-04-07T18:27:23.257Z,14.91
2019-04-07T18:30:00.711Z,15.07
2019-04-07T18:33:01.043Z,14.89
2019-04-07T18:35:37.698Z,14.88
2019-04-07T18:38:33.090Z,14.87
2019-04-07T18:41:38.070Z,15.08
2019-04-07T18:44:32.650Z,15.26
2019-04-07T18:47:27.360Z,15.46
2019-04-07T18:50:16.599Z,15.54
2019-04-07T18:53:14.682Z,15.65
2019-04-07T18:56:02.320Z,15.67
2019-04-07T18:58:51.666Z,15.64
2019-04-07T19:01:52.242Z,15.55
2019-04-07T19:04:30.346Z,15.49
2019-04-07T19:07:31.422Z,15.52
2019-04-07T19:10:26.839Z,15.63
2019-04-07T19:13:33.623Z,15.65
2019-04-07T19:16:34.228Z,15.72
2019-04-07T19:19:20.281Z,15.76
2019-04-07T19:22:04.573Z,15.51
2019-04-07T19:25:05.110Z,15.52
2019-04-07T19:28:00.036Z,15.50
2019-04-07T19:30:47.516Z,15.43
2019-04-07T19:33:47.868Z,15.50
2019-04-07T19:36:44.414Z,15.38
2019-04-07T19:39:38.400Z,14.90
2019-04-07T19:42:31.837Z,14.65
2019-04-07T19:45:25.399Z,14.48
2019-04-07T19:48:15.589Z,14.40
2019-04-07T19:51:07.211Z,14.56
2019-04-07T19:54:04.756Z,14.82
2019-04-07T19:57:00.220Z,15.05
2019-04-07T19:59:42.318Z,15.08
2019-04-07T20:02:32.637Z,14.95
2019-04-07T20:05:21.035Z,14.90
2019-04-07T20:08:20.486Z,14.84
2019-04-07T20:11:20.996Z,14.92
2019-04-07T20:14:02.900Z,15.14
2019-04-07T20:17:00.839Z,15.26
2019-04-07T20:19:52.105Z,15.41
2019-04-07T20:22:41.478Z,15.41
2019-04-07T20:25:32.034Z,15.45
2019-04-07T20:28:13.102Z,15.35
2019-04-07T20:31:02.709Z,15.53
2019-04-07T20:33:57.243Z,15.96
2019-04-07T20:36:48.750Z,15.55
2019-04-07T20:39:36.689Z,15.27
2019-04-07T20:42:31.554Z,15.06
2019-04-07T20:45:20.041Z,15.04
2019-04-07T20:48:07.199Z,15.14
2019-04-07T20:51:02.539Z,14.90
2019-04-07T20:53:51.523Z,14.99
2019-04-07T20:56:52.424Z,15.14
2019-04-07T20:59:33.012Z,15.42
2019-04-07T21:02:22.873Z,15.34
2019-04-07T21:05:10.201Z,15.29
2019-04-07T21:08:16.824Z,15.30
2019-04-07T21:11:04.609Z,15.18
2019-04-07T21:13:57.630Z,15.11
2019-04-07T21:16:59.396Z,14.94
2019-04-07T21:19:44.357Z,14.70
2019-04-07T21:22:29.949Z,15.02
2019-04-07T21:25:19.520Z,15.23
2019-04-07T21:28:12.583Z,15.41
2019-04-07T21:30:54.585Z,15.21
2019-04-07T21:33:49.640Z,14.94
2019-04-07T21:36:41.773Z,14.87
2019-04-07T21:39:25.901Z,14.82
2019-04-07T21:42:17.137Z,14.87
2019-04-07T21:45:11.761Z,14.78
2019-04-07T21:48:00.254Z,14.97
2019-04-07T21:50:55.695Z,14.89
2019-04-07T21:53:36.730Z,14.94
2019-04-07T21:56:31.124Z,14.86
2019-04-07T21:59:31.137Z,14.88
2019-04-07T22:02:12.192Z,14.71
2019-04-07T22:05:12.240Z,14.86
2019-04-07T22:08:14.410Z,14.83
2019-04-07T22:10:41.597Z,14.97
2019-04-07T22:13:12.176Z,15.00
2019-04-07T22:15:48.298Z,15.05
2019-04-07T22:18:13.211Z,15.01
2019-04-07T22:20:43.250Z,15.15
2019-04-07T22:23:12.881Z,15.07
2019-04-07T22:25:51.409Z,14.97
2019-04-07T22:28:21.282Z,15.03
2019-04-07T22:30:52.204Z,15.01
2019-04-07T22:33:25.244Z,15.12
2019-04-07T22:35:53.352Z,15.14
2019-04-07T22:38:23.735Z,15.15
2019-04-07T22:40:54.253Z,15.13
2019-04-07T22:43:24.795Z,15.07
2019-04-07T22:46:06.881Z,15.01
2019-04-07T22:48:27.901Z,15.05
2019-04-07T22:50:57.298Z,15.17
2019-04-07T22:53:29.581Z,15.05
2019-04-07T22:55:59.102Z,15.13
2019-04-07T22:58:29.730Z,14.95
2019-04-07T23:00:59.494Z,15.18
2019-04-07T23:03:29.362Z,15.01
2019-04-07T23:05:59.053Z,14.99
2019-04-07T23:08:28.637Z,15.15
2019-04-07T23:10:58.282Z,14.91
2019-04-07T23:13:28.059Z,15.00
2019-04-07T23:16:08.768Z,15.06
2019-04-07T23:18:29.700Z,15.14
2019-04-07T23:20:59.931Z,15.19
2019-04-07T23:23:30.869Z,15.13
2019-04-07T23:26:00.674Z,15.28
2019-04-07T23:28:30.650Z,15.34
2019-04-07T23:31:00.358Z,15.41
2019-04-07T23:33:29.956Z,15.32
2019-04-07T23:36:00.417Z,15.25
2019-04-07T23:38:30.429Z,15.22
2019-04-07T23:41:01.116Z,15.27
2019-04-07T23:43:30.749Z,15.39
2019-04-07T23:46:00.382Z,15.27
2019-04-07T23:48:30.597Z,15.22
2019-04-07T23:51:00.278Z,15.27
2019-04-07T23:54:07.195Z,15.28
2019-04-07T23:56:37.615Z,15.24
2019-04-07T23:59:08.146Z,15.08
